sensor_id;sensor_type;location;lat;lon;timestamp;temperature;humidity
49224;DHT22;35050;51.316;5.994;2024-01-25T00:01:11;9.20;99.90
49224;DHT22;35050;51.316;5.994;2024-01-25T00:03:37;9.30;99.90
49224;DHT22;35050;51.316;5.994;2024-01-25T00:06:07;9.20;99.90
49224;DHT22;35050;51.316;5.994;2024-01-25T00:08:33;9.30;99.90
49224;DHT22;35050;51.316;5.994;2024-01-25T00:11:01;9.30;99.90
49224;DHT22;35050;51.316;5.994;2024-01-25T00:13:27;9.20;99.90
49224;DHT22;35050;51.316;5.994;2024-01-25T00:15:52;9.20;99.90
49224;DHT22;35050;51.316;5.994;2024-01-25T00:18:18;9.10;99.90
49224;DHT22;35050;51.316;5.994;2024-01-25T00:20:44;9.10;99.90
49224;DHT22;35050;51.316;5.994;2024-01-25T00:23:09;9.30;99.90
49224;DHT22;35050;51.316;5.994;2024-01-25T00:25:35;9.20;99.90
49224;DHT22;35050;51.316;5.994;2024-01-25T00:28:00;9.30;99.90
49224;DHT22;35050;51.316;5.994;2024-01-25T00:30:26;9.20;99.90
49224;DHT22;35050;51.316;5.994;2024-01-25T00:32:52;9.30;99.90
49224;DHT22;35050;51.316;5.994;2024-01-25T00:35:17;9.20;99.90
49224;DHT22;35050;51.316;5.994;2024-01-25T00:37:43;9.10;99.90
49224;DHT22;35050;51.316;5.994;2024-01-25T00:40:09;9.10;99.90
49224;DHT22;35050;51.316;5.994;2024-01-25T00:42:44;9.10;99.90
49224;DHT22;35050;51.316;5.994;2024-01-25T00:45:11;9.00;99.90
49224;DHT22;35050;51.316;5.994;2024-01-25T00:47:37;9.00;99.90
49224;DHT22;35050;51.316;5.994;2024-01-25T00:50:04;8.90;99.90
49224;DHT22;35050;51.316;5.994;2024-01-25T00:52:30;8.80;99.90
49224;DHT22;35050;51.316;5.994;2024-01-25T00:54:56;8.80;99.90
49224;DHT22;35050;51.316;5.994;2024-01-25T00:57:22;8.80;99.90
49224;DHT22;35050;51.316;5.994;2024-01-25T00:59:48;8.70;99.90
49224;DHT22;35050;51.316;5.994;2024-01-25T01:02:14;8.70;99.90
49224;DHT22;35050;51.316;5.994;2024-01-25T01:04:40;8.70;99.90
49224;DHT22;35050;51.316;5.994;2024-01-25T01:07:06;8.70;99.90
49224;DHT22;35050;51.316;5.994;2024-01-25T01:09:32;8.60;99.90
49224;DHT22;35050;51.316;5.994;2024-01-25T01:11:58;8.50;99.90
49224;DHT22;35050;51.316;5.994;2024-01-25T01:14:24;8.50;99.90
49224;DHT22;35050;51.316;5.994;2024-01-25T01:16:50;8.50;99.90
49224;DHT22;35050;51.316;5.994;2024-01-25T01:19:16;8.60;99.90
49224;DHT22;35050;51.316;5.994;2024-01-25T01:21:42;8.60;99.90
49224;DHT22;35050;51.316;5.994;2024-01-25T01:24:10;8.50;99.90
49224;DHT22;35050;51.316;5.994;2024-01-25T01:26:39;8.50;99.90
49224;DHT22;35050;51.316;5.994;2024-01-25T01:29:07;8.50;99.90
49224;DHT22;35050;51.316;5.994;2024-01-25T01:31:33;8.40;99.90
49224;DHT22;35050;51.316;5.994;2024-01-25T01:33:59;8.30;99.90
49224;DHT22;35050;51.316;5.994;2024-01-25T01:36:26;8.30;99.90
49224;DHT22;35050;51.316;5.994;2024-01-25T01:38:51;8.20;99.90
49224;DHT22;35050;51.316;5.994;2024-01-25T01:41:17;8.20;99.90
49224;DHT22;35050;51.316;5.994;2024-01-25T01:43:43;8.10;99.90
49224;DHT22;35050;51.316;5.994;2024-01-25T01:48:57;8.20;99.90
49224;DHT22;35050;51.316;5.994;2024-01-25T01:51:23;8.20;99.90
49224;DHT22;35050;51.316;5.994;2024-01-25T01:53:49;8.20;99.90
49224;DHT22;35050;51.316;5.994;2024-01-25T01:56:15;8.30;99.90
49224;DHT22;35050;51.316;5.994;2024-01-25T01:58:41;8.30;99.90
49224;DHT22;35050;51.316;5.994;2024-01-25T02:01:07;8.10;99.90
49224;DHT22;35050;51.316;5.994;2024-01-25T02:03:33;8.20;99.90
49224;DHT22;35050;51.316;5.994;2024-01-25T02:06:00;8.20;99.90
49224;DHT22;35050;51.316;5.994;2024-01-25T02:08:29;8.20;99.90
49224;DHT22;35050;51.316;5.994;2024-01-25T02:10:55;8.10;99.90
49224;DHT22;35050;51.316;5.994;2024-01-25T02:13:21;8.20;99.90
49224;DHT22;35050;51.316;5.994;2024-01-25T02:15:47;8.20;99.90
49224;DHT22;35050;51.316;5.994;2024-01-25T02:18:12;8.10;99.90
49224;DHT22;35050;51.316;5.994;2024-01-25T02:20:38;8.20;99.90
49224;DHT22;35050;51.316;5.994;2024-01-25T02:23:04;8.10;99.90
49224;DHT22;35050;51.316;5.994;2024-01-25T02:25:29;8.10;99.90
49224;DHT22;35050;51.316;5.994;2024-01-25T02:27:55;8.10;99.90
49224;DHT22;35050;51.316;5.994;2024-01-25T02:30:21;8.10;99.90
49224;DHT22;35050;51.316;5.994;2024-01-25T02:32:46;8.10;99.90
49224;DHT22;35050;51.316;5.994;2024-01-25T02:35:12;8.10;99.90
49224;DHT22;35050;51.316;5.994;2024-01-25T02:37:38;8.10;99.90
49224;DHT22;35050;51.316;5.994;2024-01-25T02:40:04;8.10;99.90
49224;DHT22;35050;51.316;5.994;2024-01-25T02:42:30;8.10;99.90
49224;DHT22;35050;51.316;5.994;2024-01-25T02:44:55;8.10;99.90
49224;DHT22;35050;51.316;5.994;2024-01-25T02:47:21;8.00;99.90
49224;DHT22;35050;51.316;5.994;2024-01-25T02:49:47;8.00;99.90
49224;DHT22;35050;51.316;5.994;2024-01-25T02:52:12;8.00;99.90
49224;DHT22;35050;51.316;5.994;2024-01-25T02:54:38;7.90;99.90
49224;DHT22;35050;51.316;5.994;2024-01-25T02:57:04;7.80;99.90
49224;DHT22;35050;51.316;5.994;2024-01-25T02:59:30;7.80;99.90
49224;DHT22;35050;51.316;5.994;2024-01-25T03:01:56;7.90;99.90
49224;DHT22;35050;51.316;5.994;2024-01-25T03:04:22;7.90;99.90
49224;DHT22;35050;51.316;5.994;2024-01-25T03:06:48;7.90;99.90
49224;DHT22;35050;51.316;5.994;2024-01-25T03:09:14;7.90;99.90
49224;DHT22;35050;51.316;5.994;2024-01-25T03:11:40;7.90;99.90
49224;DHT22;35050;51.316;5.994;2024-01-25T03:14:05;7.90;99.90
49224;DHT22;35050;51.316;5.994;2024-01-25T03:16:31;7.80;99.90
49224;DHT22;35050;51.316;5.994;2024-01-25T03:18:56;7.90;99.90
49224;DHT22;35050;51.316;5.994;2024-01-25T03:21:22;7.80;99.90
49224;DHT22;35050;51.316;5.994;2024-01-25T03:23:48;7.70;99.90
49224;DHT22;35050;51.316;5.994;2024-01-25T03:26:13;7.60;99.90
49224;DHT22;35050;51.316;5.994;2024-01-25T03:28:39;7.50;99.90
49224;DHT22;35050;51.316;5.994;2024-01-25T03:31:06;7.50;99.90
49224;DHT22;35050;51.316;5.994;2024-01-25T03:33:31;7.50;99.90
49224;DHT22;35050;51.316;5.994;2024-01-25T03:36:02;7.40;99.90
49224;DHT22;35050;51.316;5.994;2024-01-25T03:38:28;7.40;99.90
49224;DHT22;35050;51.316;5.994;2024-01-25T03:40:53;7.30;99.90
49224;DHT22;35050;51.316;5.994;2024-01-25T03:43:20;7.20;99.90
49224;DHT22;35050;51.316;5.994;2024-01-25T03:45:46;7.20;99.90
49224;DHT22;35050;51.316;5.994;2024-01-25T03:48:11;7.20;99.90
49224;DHT22;35050;51.316;5.994;2024-01-25T03:50:37;7.10;99.90
49224;DHT22;35050;51.316;5.994;2024-01-25T03:53:03;7.00;99.90
49224;DHT22;35050;51.316;5.994;2024-01-25T03:55:29;7.00;99.90
49224;DHT22;35050;51.316;5.994;2024-01-25T03:57:54;7.00;99.90
49224;DHT22;35050;51.316;5.994;2024-01-25T04:00:20;7.00;99.90
49224;DHT22;35050;51.316;5.994;2024-01-25T04:02:45;6.90;99.90
49224;DHT22;35050;51.316;5.994;2024-01-25T04:05:11;6.90;99.90
49224;DHT22;35050;51.316;5.994;2024-01-25T04:07:37;6.90;99.90
49224;DHT22;35050;51.316;5.994;2024-01-25T04:10:02;6.90;99.90
49224;DHT22;35050;51.316;5.994;2024-01-25T04:12:28;6.70;99.90
49224;DHT22;35050;51.316;5.994;2024-01-25T04:14:54;6.70;99.90
49224;DHT22;35050;51.316;5.994;2024-01-25T04:17:19;6.70;99.90
49224;DHT22;35050;51.316;5.994;2024-01-25T04:19:45;6.70;99.90
49224;DHT22;35050;51.316;5.994;2024-01-25T04:22:10;6.70;99.90
49224;DHT22;35050;51.316;5.994;2024-01-25T04:24:36;6.70;99.90
49224;DHT22;35050;51.316;5.994;2024-01-25T04:27:02;6.70;99.90
49224;DHT22;35050;51.316;5.994;2024-01-25T04:29:28;6.70;99.90
49224;DHT22;35050;51.316;5.994;2024-01-25T04:31:54;6.60;99.90
49224;DHT22;35050;51.316;5.994;2024-01-25T04:34:19;6.60;99.90
49224;DHT22;35050;51.316;5.994;2024-01-25T04:36:45;6.60;99.90
49224;DHT22;35050;51.316;5.994;2024-01-25T04:39:11;6.60;99.90
49224;DHT22;35050;51.316;5.994;2024-01-25T04:41:36;6.60;99.90
49224;DHT22;35050;51.316;5.994;2024-01-25T04:44:02;6.50;99.90
49224;DHT22;35050;51.316;5.994;2024-01-25T04:46:28;6.40;99.90
49224;DHT22;35050;51.316;5.994;2024-01-25T04:48:54;6.40;99.90
49224;DHT22;35050;51.316;5.994;2024-01-25T04:51:20;6.40;99.90
49224;DHT22;35050;51.316;5.994;2024-01-25T04:53:46;6.40;99.90
49224;DHT22;35050;51.316;5.994;2024-01-25T04:56:12;6.50;99.90
49224;DHT22;35050;51.316;5.994;2024-01-25T04:58:37;6.50;99.90
49224;DHT22;35050;51.316;5.994;2024-01-25T05:01:03;6.40;99.90
49224;DHT22;35050;51.316;5.994;2024-01-25T05:03:29;6.30;99.90
49224;DHT22;35050;51.316;5.994;2024-01-25T05:05:56;6.30;99.90
49224;DHT22;35050;51.316;5.994;2024-01-25T05:08:21;6.20;99.90
49224;DHT22;35050;51.316;5.994;2024-01-25T05:10:47;6.20;99.90
49224;DHT22;35050;51.316;5.994;2024-01-25T05:13:12;6.20;99.90
49224;DHT22;35050;51.316;5.994;2024-01-25T05:15:38;6.10;99.90
49224;DHT22;35050;51.316;5.994;2024-01-25T05:18:04;6.10;99.90
49224;DHT22;35050;51.316;5.994;2024-01-25T05:20:30;6.10;99.90
49224;DHT22;35050;51.316;5.994;2024-01-25T05:23:00;6.10;99.90
49224;DHT22;35050;51.316;5.994;2024-01-25T05:25:25;6.10;99.90
49224;DHT22;35050;51.316;5.994;2024-01-25T05:27:55;6.00;99.90
49224;DHT22;35050;51.316;5.994;2024-01-25T05:30:28;6.10;99.90
49224;DHT22;35050;51.316;5.994;2024-01-25T05:32:53;6.00;99.90
49224;DHT22;35050;51.316;5.994;2024-01-25T05:35:20;5.90;99.90
49224;DHT22;35050;51.316;5.994;2024-01-25T05:37:45;5.90;99.90
49224;DHT22;35050;51.316;5.994;2024-01-25T05:40:11;6.00;99.90
49224;DHT22;35050;51.316;5.994;2024-01-25T05:42:37;6.00;99.90
49224;DHT22;35050;51.316;5.994;2024-01-25T05:45:04;5.80;99.90
49224;DHT22;35050;51.316;5.994;2024-01-25T05:47:29;5.90;99.90
49224;DHT22;35050;51.316;5.994;2024-01-25T05:49:55;5.90;99.90
49224;DHT22;35050;51.316;5.994;2024-01-25T05:52:22;5.80;99.90
49224;DHT22;35050;51.316;5.994;2024-01-25T05:54:48;5.90;99.90
49224;DHT22;35050;51.316;5.994;2024-01-25T05:57:14;5.80;99.90
49224;DHT22;35050;51.316;5.994;2024-01-25T05:59:40;5.80;99.90
49224;DHT22;35050;51.316;5.994;2024-01-25T06:02:06;5.80;99.90
49224;DHT22;35050;51.316;5.994;2024-01-25T06:04:33;5.90;99.90
49224;DHT22;35050;51.316;5.994;2024-01-25T06:06:58;6.00;99.90
49224;DHT22;35050;51.316;5.994;2024-01-25T06:09:24;5.90;99.90
49224;DHT22;35050;51.316;5.994;2024-01-25T06:11:50;5.80;99.90
49224;DHT22;35050;51.316;5.994;2024-01-25T06:14:16;5.80;99.90
49224;DHT22;35050;51.316;5.994;2024-01-25T06:16:42;5.80;99.90
49224;DHT22;35050;51.316;5.994;2024-01-25T06:19:08;5.70;99.90
49224;DHT22;35050;51.316;5.994;2024-01-25T06:21:34;5.70;99.90
49224;DHT22;35050;51.316;5.994;2024-01-25T06:24:04;5.70;99.90
49224;DHT22;35050;51.316;5.994;2024-01-25T06:26:30;5.60;99.90
49224;DHT22;35050;51.316;5.994;2024-01-25T06:28:57;5.70;99.90
49224;DHT22;35050;51.316;5.994;2024-01-25T06:31:26;5.70;99.90
49224;DHT22;35050;51.316;5.994;2024-01-25T06:33:51;5.70;99.90
49224;DHT22;35050;51.316;5.994;2024-01-25T06:36:21;5.80;99.90
49224;DHT22;35050;51.316;5.994;2024-01-25T06:38:47;5.60;99.90
49224;DHT22;35050;51.316;5.994;2024-01-25T06:41:12;5.60;99.90
49224;DHT22;35050;51.316;5.994;2024-01-25T06:43:38;5.60;99.90
49224;DHT22;35050;51.316;5.994;2024-01-25T06:46:06;5.60;99.90
49224;DHT22;35050;51.316;5.994;2024-01-25T06:48:32;5.60;99.90
49224;DHT22;35050;51.316;5.994;2024-01-25T06:50:58;5.50;99.90
49224;DHT22;35050;51.316;5.994;2024-01-25T06:53:24;5.50;99.90
49224;DHT22;35050;51.316;5.994;2024-01-25T06:55:49;5.40;99.90
49224;DHT22;35050;51.316;5.994;2024-01-25T06:58:15;5.40;99.90
49224;DHT22;35050;51.316;5.994;2024-01-25T07:00:40;5.50;99.90
49224;DHT22;35050;51.316;5.994;2024-01-25T07:03:08;5.40;99.90
49224;DHT22;35050;51.316;5.994;2024-01-25T07:05:34;5.50;99.90
49224;DHT22;35050;51.316;5.994;2024-01-25T07:08:04;5.50;99.90
49224;DHT22;35050;51.316;5.994;2024-01-25T07:10:29;5.40;99.90
49224;DHT22;35050;51.316;5.994;2024-01-25T07:12:55;5.40;99.90
49224;DHT22;35050;51.316;5.994;2024-01-25T07:15:21;5.40;99.90
49224;DHT22;35050;51.316;5.994;2024-01-25T07:17:46;5.40;99.90
49224;DHT22;35050;51.316;5.994;2024-01-25T07:20:12;5.70;99.90
49224;DHT22;35050;51.316;5.994;2024-01-25T07:22:39;5.60;99.90
49224;DHT22;35050;51.316;5.994;2024-01-25T07:25:05;5.60;99.90
49224;DHT22;35050;51.316;5.994;2024-01-25T07:27:31;5.60;99.90
49224;DHT22;35050;51.316;5.994;2024-01-25T07:29:56;5.50;99.90
49224;DHT22;35050;51.316;5.994;2024-01-25T07:32:22;5.60;99.90
49224;DHT22;35050;51.316;5.994;2024-01-25T07:34:50;5.50;99.90
49224;DHT22;35050;51.316;5.994;2024-01-25T07:37:16;5.60;99.90
49224;DHT22;35050;51.316;5.994;2024-01-25T07:39:43;5.70;99.90
49224;DHT22;35050;51.316;5.994;2024-01-25T07:42:09;5.60;99.90
49224;DHT22;35050;51.316;5.994;2024-01-25T07:44:35;5.60;99.90
49224;DHT22;35050;51.316;5.994;2024-01-25T07:47:00;5.60;99.90
49224;DHT22;35050;51.316;5.994;2024-01-25T07:49:28;5.60;99.90
49224;DHT22;35050;51.316;5.994;2024-01-25T07:51:54;5.60;99.90
49224;DHT22;35050;51.316;5.994;2024-01-25T07:54:22;5.60;99.90
49224;DHT22;35050;51.316;5.994;2024-01-25T07:56:48;5.60;99.90
49224;DHT22;35050;51.316;5.994;2024-01-25T07:59:13;5.70;99.90
49224;DHT22;35050;51.316;5.994;2024-01-25T08:01:39;5.70;99.90
49224;DHT22;35050;51.316;5.994;2024-01-25T08:04:05;5.60;99.90
49224;DHT22;35050;51.316;5.994;2024-01-25T08:06:30;5.60;99.90
49224;DHT22;35050;51.316;5.994;2024-01-25T08:08:56;5.60;99.90
49224;DHT22;35050;51.316;5.994;2024-01-25T08:11:22;5.80;99.90
49224;DHT22;35050;51.316;5.994;2024-01-25T08:13:48;5.80;99.90
49224;DHT22;35050;51.316;5.994;2024-01-25T08:16:14;5.80;99.90
49224;DHT22;35050;51.316;5.994;2024-01-25T08:18:45;6.00;99.90
49224;DHT22;35050;51.316;5.994;2024-01-25T08:21:11;5.90;99.90
49224;DHT22;35050;51.316;5.994;2024-01-25T08:23:37;6.00;99.90
49224;DHT22;35050;51.316;5.994;2024-01-25T08:26:04;6.00;99.90
49224;DHT22;35050;51.316;5.994;2024-01-25T08:28:29;6.00;99.90
49224;DHT22;35050;51.316;5.994;2024-01-25T08:30:55;6.20;99.90
49224;DHT22;35050;51.316;5.994;2024-01-25T08:33:21;6.20;99.90
49224;DHT22;35050;51.316;5.994;2024-01-25T08:35:46;6.20;99.90
49224;DHT22;35050;51.316;5.994;2024-01-25T08:38:12;6.30;99.90
49224;DHT22;35050;51.316;5.994;2024-01-25T08:40:37;6.40;99.90
49224;DHT22;35050;51.316;5.994;2024-01-25T08:43:03;6.40;99.90
49224;DHT22;35050;51.316;5.994;2024-01-25T08:45:30;6.50;99.90
49224;DHT22;35050;51.316;5.994;2024-01-25T08:47:55;6.70;99.90
49224;DHT22;35050;51.316;5.994;2024-01-25T08:50:22;6.70;99.90
49224;DHT22;35050;51.316;5.994;2024-01-25T08:52:48;6.80;99.90
49224;DHT22;35050;51.316;5.994;2024-01-25T08:55:14;6.80;99.90
49224;DHT22;35050;51.316;5.994;2024-01-25T08:57:39;6.70;99.90
49224;DHT22;35050;51.316;5.994;2024-01-25T09:00:06;6.80;99.90
49224;DHT22;35050;51.316;5.994;2024-01-25T09:02:38;6.80;99.90
49224;DHT22;35050;51.316;5.994;2024-01-25T09:05:07;6.90;99.90
49224;DHT22;35050;51.316;5.994;2024-01-25T09:07:34;6.90;99.90
49224;DHT22;35050;51.316;5.994;2024-01-25T09:09:59;7.00;99.90
49224;DHT22;35050;51.316;5.994;2024-01-25T09:12:25;7.00;99.90
49224;DHT22;35050;51.316;5.994;2024-01-25T09:14:51;7.10;99.90
49224;DHT22;35050;51.316;5.994;2024-01-25T09:17:16;7.20;99.90
49224;DHT22;35050;51.316;5.994;2024-01-25T09:19:50;7.20;99.90
49224;DHT22;35050;51.316;5.994;2024-01-25T09:22:16;7.20;99.90
49224;DHT22;35050;51.316;5.994;2024-01-25T09:24:44;7.30;99.90
49224;DHT22;35050;51.316;5.994;2024-01-25T09:27:10;7.30;99.90
49224;DHT22;35050;51.316;5.994;2024-01-25T09:29:36;7.30;99.90
49224;DHT22;35050;51.316;5.994;2024-01-25T09:32:04;7.20;99.90
49224;DHT22;35050;51.316;5.994;2024-01-25T09:34:29;7.30;99.90
49224;DHT22;35050;51.316;5.994;2024-01-25T09:36:55;7.20;99.90
49224;DHT22;35050;51.316;5.994;2024-01-25T09:39:21;7.20;99.90
49224;DHT22;35050;51.316;5.994;2024-01-25T09:41:46;7.30;99.90
49224;DHT22;35050;51.316;5.994;2024-01-25T09:44:12;7.40;99.90
49224;DHT22;35050;51.316;5.994;2024-01-25T09:46:39;7.50;99.90
49224;DHT22;35050;51.316;5.994;2024-01-25T09:49:07;7.40;99.90
49224;DHT22;35050;51.316;5.994;2024-01-25T09:51:38;7.40;99.90
49224;DHT22;35050;51.316;5.994;2024-01-25T09:54:05;7.30;99.90
49224;DHT22;35050;51.316;5.994;2024-01-25T09:56:32;7.30;99.90
49224;DHT22;35050;51.316;5.994;2024-01-25T09:58:58;7.40;99.90
49224;DHT22;35050;51.316;5.994;2024-01-25T10:01:24;7.60;99.90
49224;DHT22;35050;51.316;5.994;2024-01-25T10:03:50;7.60;99.90
49224;DHT22;35050;51.316;5.994;2024-01-25T10:06:16;7.60;99.90
49224;DHT22;35050;51.316;5.994;2024-01-25T10:08:42;7.60;99.90
49224;DHT22;35050;51.316;5.994;2024-01-25T10:11:08;7.50;99.90
49224;DHT22;35050;51.316;5.994;2024-01-25T10:13:45;7.50;99.90
49224;DHT22;35050;51.316;5.994;2024-01-25T10:16:11;7.90;99.90
49224;DHT22;35050;51.316;5.994;2024-01-25T10:18:39;7.60;99.90
49224;DHT22;35050;51.316;5.994;2024-01-25T10:21:05;7.60;99.90
49224;DHT22;35050;51.316;5.994;2024-01-25T10:23:31;7.70;99.90
49224;DHT22;35050;51.316;5.994;2024-01-25T10:25:57;7.60;99.90
49224;DHT22;35050;51.316;5.994;2024-01-25T10:28:24;7.60;99.90
49224;DHT22;35050;51.316;5.994;2024-01-25T10:30:50;7.50;99.90
49224;DHT22;35050;51.316;5.994;2024-01-25T10:33:17;7.70;99.90
49224;DHT22;35050;51.316;5.994;2024-01-25T10:35:44;7.80;99.90
49224;DHT22;35050;51.316;5.994;2024-01-25T10:38:16;7.90;99.90
49224;DHT22;35050;51.316;5.994;2024-01-25T10:40:43;7.90;99.90
49224;DHT22;35050;51.316;5.994;2024-01-25T10:43:09;8.00;99.90
49224;DHT22;35050;51.316;5.994;2024-01-25T10:45:35;8.00;99.90
49224;DHT22;35050;51.316;5.994;2024-01-25T10:48:01;7.90;99.90
49224;DHT22;35050;51.316;5.994;2024-01-25T10:50:26;7.80;99.90
49224;DHT22;35050;51.316;5.994;2024-01-25T10:52:52;7.90;99.90
49224;DHT22;35050;51.316;5.994;2024-01-25T10:55:19;8.10;99.90
49224;DHT22;35050;51.316;5.994;2024-01-25T10:57:45;8.10;99.90
49224;DHT22;35050;51.316;5.994;2024-01-25T11:00:14;8.20;99.90
49224;DHT22;35050;51.316;5.994;2024-01-25T11:02:40;8.30;99.90
49224;DHT22;35050;51.316;5.994;2024-01-25T11:05:14;8.40;99.90
49224;DHT22;35050;51.316;5.994;2024-01-25T11:07:50;9.10;99.90
49224;DHT22;35050;51.316;5.994;2024-01-25T11:10:20;8.60;99.90
49224;DHT22;35050;51.316;5.994;2024-01-25T11:12:56;8.60;99.90
49224;DHT22;35050;51.316;5.994;2024-01-25T11:15:35;8.50;99.90
49224;DHT22;35050;51.316;5.994;2024-01-25T11:18:02;8.50;99.90
49224;DHT22;35050;51.316;5.994;2024-01-25T11:20:29;8.50;99.90
49224;DHT22;35050;51.316;5.994;2024-01-25T11:23:04;8.40;99.90
49224;DHT22;35050;51.316;5.994;2024-01-25T11:25:31;8.30;99.90
49224;DHT22;35050;51.316;5.994;2024-01-25T11:27:58;8.30;99.90
49224;DHT22;35050;51.316;5.994;2024-01-25T11:30:25;8.30;99.90
49224;DHT22;35050;51.316;5.994;2024-01-25T11:32:51;8.20;99.90
49224;DHT22;35050;51.316;5.994;2024-01-25T11:35:16;8.30;99.90
49224;DHT22;35050;51.316;5.994;2024-01-25T11:37:46;8.30;99.90
49224;DHT22;35050;51.316;5.994;2024-01-25T11:40:12;8.10;99.90
49224;DHT22;35050;51.316;5.994;2024-01-25T11:42:58;8.00;99.90
49224;DHT22;35050;51.316;5.994;2024-01-25T11:45:24;7.90;99.90
49224;DHT22;35050;51.316;5.994;2024-01-25T11:47:51;7.90;99.90
49224;DHT22;35050;51.316;5.994;2024-01-25T11:50:17;7.70;99.90
49224;DHT22;35050;51.316;5.994;2024-01-25T11:52:43;7.70;99.90
49224;DHT22;35050;51.316;5.994;2024-01-25T11:55:09;7.80;99.90
49224;DHT22;35050;51.316;5.994;2024-01-25T11:57:36;7.70;99.90
49224;DHT22;35050;51.316;5.994;2024-01-25T12:00:03;7.80;99.90
49224;DHT22;35050;51.316;5.994;2024-01-25T12:02:30;7.90;99.90
49224;DHT22;35050;51.316;5.994;2024-01-25T12:04:57;7.90;99.90
49224;DHT22;35050;51.316;5.994;2024-01-25T12:07:23;7.90;99.90
49224;DHT22;35050;51.316;5.994;2024-01-25T12:10:06;7.90;99.90
49224;DHT22;35050;51.316;5.994;2024-01-25T12:12:32;8.10;99.90
49224;DHT22;35050;51.316;5.994;2024-01-25T12:15:03;8.20;99.90
49224;DHT22;35050;51.316;5.994;2024-01-25T12:17:30;8.20;99.90
49224;DHT22;35050;51.316;5.994;2024-01-25T12:19:59;10.00;99.90
49224;DHT22;35050;51.316;5.994;2024-01-25T12:22:29;9.10;99.90
49224;DHT22;35050;51.316;5.994;2024-01-25T12:24:58;8.80;99.90
49224;DHT22;35050;51.316;5.994;2024-01-25T12:27:25;8.70;99.90
49224;DHT22;35050;51.316;5.994;2024-01-25T12:29:52;8.60;99.90
49224;DHT22;35050;51.316;5.994;2024-01-25T12:32:21;8.70;99.90
49224;DHT22;35050;51.316;5.994;2024-01-25T12:34:57;8.70;99.90
49224;DHT22;35050;51.316;5.994;2024-01-25T12:37:23;8.70;99.90
49224;DHT22;35050;51.316;5.994;2024-01-25T12:39:50;8.80;99.90
49224;DHT22;35050;51.316;5.994;2024-01-25T12:42:17;8.70;99.90
49224;DHT22;35050;51.316;5.994;2024-01-25T12:44:43;8.60;99.90
49224;DHT22;35050;51.316;5.994;2024-01-25T12:47:09;8.60;99.90
49224;DHT22;35050;51.316;5.994;2024-01-25T12:49:35;8.70;99.90
49224;DHT22;35050;51.316;5.994;2024-01-25T12:52:01;8.80;99.90
49224;DHT22;35050;51.316;5.994;2024-01-25T12:54:27;9.00;99.90
49224;DHT22;35050;51.316;5.994;2024-01-25T12:56:54;9.00;99.90
49224;DHT22;35050;51.316;5.994;2024-01-25T12:59:19;9.00;99.90
49224;DHT22;35050;51.316;5.994;2024-01-25T13:01:45;9.00;99.90
49224;DHT22;35050;51.316;5.994;2024-01-25T13:04:11;9.00;99.90
49224;DHT22;35050;51.316;5.994;2024-01-25T13:06:37;9.20;99.90
49224;DHT22;35050;51.316;5.994;2024-01-25T13:09:02;9.20;99.90
49224;DHT22;35050;51.316;5.994;2024-01-25T13:11:29;9.20;99.90
49224;DHT22;35050;51.316;5.994;2024-01-25T13:13:55;9.20;99.90
49224;DHT22;35050;51.316;5.994;2024-01-25T13:16:20;9.50;99.90
49224;DHT22;35050;51.316;5.994;2024-01-25T13:18:46;9.40;99.90
49224;DHT22;35050;51.316;5.994;2024-01-25T13:21:12;9.30;99.90
49224;DHT22;35050;51.316;5.994;2024-01-25T13:23:37;9.40;99.90
49224;DHT22;35050;51.316;5.994;2024-01-25T13:26:03;9.40;99.90
49224;DHT22;35050;51.316;5.994;2024-01-25T13:28:29;9.40;99.90
49224;DHT22;35050;51.316;5.994;2024-01-25T13:30:55;9.40;99.90
49224;DHT22;35050;51.316;5.994;2024-01-25T13:33:22;9.40;99.90
49224;DHT22;35050;51.316;5.994;2024-01-25T13:35:47;10.50;99.90
49224;DHT22;35050;51.316;5.994;2024-01-25T13:38:13;10.00;99.90
49224;DHT22;35050;51.316;5.994;2024-01-25T13:40:40;9.80;99.90
49224;DHT22;35050;51.316;5.994;2024-01-25T13:43:06;9.70;99.90
49224;DHT22;35050;51.316;5.994;2024-01-25T13:45:32;9.70;99.90
49224;DHT22;35050;51.316;5.994;2024-01-25T13:47:57;9.60;99.90
49224;DHT22;35050;51.316;5.994;2024-01-25T13:50:23;9.60;99.90
49224;DHT22;35050;51.316;5.994;2024-01-25T13:52:48;9.50;99.90
49224;DHT22;35050;51.316;5.994;2024-01-25T13:55:14;9.60;99.90
49224;DHT22;35050;51.316;5.994;2024-01-25T13:57:39;9.50;99.90
49224;DHT22;35050;51.316;5.994;2024-01-25T14:00:06;9.40;99.90
49224;DHT22;35050;51.316;5.994;2024-01-25T14:02:32;9.70;99.90
49224;DHT22;35050;51.316;5.994;2024-01-25T14:04:58;9.50;99.90
49224;DHT22;35050;51.316;5.994;2024-01-25T14:07:23;9.50;99.90
49224;DHT22;35050;51.316;5.994;2024-01-25T14:09:49;9.50;99.90
49224;DHT22;35050;51.316;5.994;2024-01-25T14:12:15;9.40;99.90
49224;DHT22;35050;51.316;5.994;2024-01-25T14:14:41;9.40;99.90
49224;DHT22;35050;51.316;5.994;2024-01-25T14:17:07;9.50;99.90
49224;DHT22;35050;51.316;5.994;2024-01-25T14:19:32;9.60;99.90
49224;DHT22;35050;51.316;5.994;2024-01-25T14:21:58;9.60;99.90
49224;DHT22;35050;51.316;5.994;2024-01-25T14:24:23;9.50;99.90
49224;DHT22;35050;51.316;5.994;2024-01-25T14:26:49;9.60;99.90
49224;DHT22;35050;51.316;5.994;2024-01-25T14:29:15;9.60;99.90
49224;DHT22;35050;51.316;5.994;2024-01-25T14:31:40;9.70;99.90
49224;DHT22;35050;51.316;5.994;2024-01-25T14:34:07;9.70;99.90
49224;DHT22;35050;51.316;5.994;2024-01-25T14:36:34;9.70;99.90
49224;DHT22;35050;51.316;5.994;2024-01-25T14:38:59;9.70;99.90
49224;DHT22;35050;51.316;5.994;2024-01-25T14:41:26;9.70;99.90
49224;DHT22;35050;51.316;5.994;2024-01-25T14:43:51;9.70;99.90
49224;DHT22;35050;51.316;5.994;2024-01-25T14:46:17;9.70;99.90
49224;DHT22;35050;51.316;5.994;2024-01-25T14:48:42;9.80;99.90
49224;DHT22;35050;51.316;5.994;2024-01-25T14:51:08;9.80;99.90
49224;DHT22;35050;51.316;5.994;2024-01-25T14:53:34;9.80;99.90
49224;DHT22;35050;51.316;5.994;2024-01-25T14:55:59;9.70;99.90
49224;DHT22;35050;51.316;5.994;2024-01-25T14:58:26;9.80;99.90
49224;DHT22;35050;51.316;5.994;2024-01-25T15:00:52;9.80;99.90
49224;DHT22;35050;51.316;5.994;2024-01-25T15:03:19;9.80;99.90
49224;DHT22;35050;51.316;5.994;2024-01-25T15:05:44;9.70;99.90
49224;DHT22;35050;51.316;5.994;2024-01-25T15:08:10;9.80;99.90
49224;DHT22;35050;51.316;5.994;2024-01-25T15:10:36;9.80;99.90
49224;DHT22;35050;51.316;5.994;2024-01-25T15:13:02;9.80;99.90
49224;DHT22;35050;51.316;5.994;2024-01-25T15:15:28;9.80;99.90
49224;DHT22;35050;51.316;5.994;2024-01-25T15:17:54;9.80;99.90
49224;DHT22;35050;51.316;5.994;2024-01-25T15:20:21;9.80;99.90
49224;DHT22;35050;51.316;5.994;2024-01-25T15:22:47;9.70;99.90
49224;DHT22;35050;51.316;5.994;2024-01-25T15:25:12;9.70;99.90
49224;DHT22;35050;51.316;5.994;2024-01-25T15:27:38;9.60;99.90
49224;DHT22;35050;51.316;5.994;2024-01-25T15:30:04;9.60;99.90
49224;DHT22;35050;51.316;5.994;2024-01-25T15:32:31;9.40;99.90
49224;DHT22;35050;51.316;5.994;2024-01-25T15:34:57;9.30;99.90
49224;DHT22;35050;51.316;5.994;2024-01-25T15:37:22;9.30;99.90
49224;DHT22;35050;51.316;5.994;2024-01-25T15:39:48;9.30;99.90
49224;DHT22;35050;51.316;5.994;2024-01-25T15:42:14;9.30;99.90